Terminal Aerodrome Forecast
Issued by NWS Charleston, WV

Current Version | Previous Version | Text Only | Print | Product List | Glossary Off
Versions: 1 2 3 4 5 6 7 8 9 10 11 12 13 14 15 16 17 18 19 20 21 22 23

000
FTUS41 KRLX 261739
TAFEKN
TAF
KEKN 261739Z 2618/2718 VRB03KT P6SM SCT040
     FM262100 VRB03KT P6SM VCTS BKN040CB
     FM270300 VRB03KT 5SM -SHRA BR BKN035
     FM271000 VRB03KT 4SM BR BKN025
     FM271500 VRB03KT 6SM HZ BKN030=

USA.gov is the U.S. government's official web portal to all federal, state and local government web resources and services.